sensor_id;sensor_type;location;lat;lon;timestamp;P1;durP1;ratioP1;P2;durP2;ratioP2
7289;SDS011;63176;52.678;13.250;2023-04-22T00:00:02;4.85;;;4.13;;
7289;SDS011;63176;52.678;13.250;2023-04-22T00:02:28;6.30;;;4.68;;
7289;SDS011;63176;52.678;13.250;2023-04-22T00:04:54;6.23;;;4.13;;
7289;SDS011;63176;52.678;13.250;2023-04-22T00:07:21;8.32;;;4.30;;
7289;SDS011;63176;52.678;13.250;2023-04-22T00:09:47;6.00;;;4.50;;
7289;SDS011;63176;52.678;13.250;2023-04-22T00:12:13;4.82;;;3.50;;
7289;SDS011;63176;52.678;13.250;2023-04-22T00:14:38;5.43;;;4.27;;
7289;SDS011;63176;52.678;13.250;2023-04-22T00:17:04;6.57;;;4.23;;
7289;SDS011;63176;52.678;13.250;2023-04-22T00:19:31;4.85;;;4.15;;
7289;SDS011;63176;52.678;13.250;2023-04-22T00:21:57;6.38;;;4.03;;
7289;SDS011;63176;52.678;13.250;2023-04-22T00:24:23;4.63;;;3.83;;
7289;SDS011;63176;52.678;13.250;2023-04-22T00:26:48;4.20;;;3.70;;
7289;SDS011;63176;52.678;13.250;2023-04-22T00:29:14;8.00;;;4.37;;
7289;SDS011;63176;52.678;13.250;2023-04-22T00:31:40;6.60;;;4.13;;
7289;SDS011;63176;52.678;13.250;2023-04-22T00:34:05;9.27;;;4.53;;
7289;SDS011;63176;52.678;13.250;2023-04-22T00:36:31;7.53;;;4.07;;
7289;SDS011;63176;52.678;13.250;2023-04-22T00:38:56;5.57;;;4.80;;
7289;SDS011;63176;52.678;13.250;2023-04-22T00:41:22;5.80;;;4.07;;
7289;SDS011;63176;52.678;13.250;2023-04-22T00:43:48;5.32;;;4.70;;
7289;SDS011;63176;52.678;13.250;2023-04-22T00:46:15;5.88;;;3.70;;
7289;SDS011;63176;52.678;13.250;2023-04-22T00:48:40;5.97;;;3.93;;
7289;SDS011;63176;52.678;13.250;2023-04-22T00:51:06;6.50;;;3.90;;
7289;SDS011;63176;52.678;13.250;2023-04-22T00:53:32;9.27;;;4.70;;
7289;SDS011;63176;52.678;13.250;2023-04-22T00:55:58;8.90;;;5.63;;
7289;SDS011;63176;52.678;13.250;2023-04-22T00:58:25;9.83;;;5.00;;
7289;SDS011;63176;52.678;13.250;2023-04-22T01:00:52;8.05;;;5.20;;
7289;SDS011;63176;52.678;13.250;2023-04-22T01:03:19;10.33;;;5.80;;
7289;SDS011;63176;52.678;13.250;2023-04-22T01:05:49;9.40;;;5.15;;
7289;SDS011;63176;52.678;13.250;2023-04-22T01:08:15;9.60;;;5.35;;
7289;SDS011;63176;52.678;13.250;2023-04-22T01:10:41;11.73;;;5.00;;
7289;SDS011;63176;52.678;13.250;2023-04-22T01:13:07;7.37;;;4.80;;
7289;SDS011;63176;52.678;13.250;2023-04-22T01:15:33;8.45;;;4.70;;
7289;SDS011;63176;52.678;13.250;2023-04-22T01:17:59;5.10;;;4.18;;
7289;SDS011;63176;52.678;13.250;2023-04-22T01:20:29;7.75;;;4.90;;
7289;SDS011;63176;52.678;13.250;2023-04-22T01:22:55;5.72;;;4.22;;
7289;SDS011;63176;52.678;13.250;2023-04-22T01:25:21;7.95;;;4.40;;
7289;SDS011;63176;52.678;13.250;2023-04-22T01:27:51;6.55;;;4.55;;
7289;SDS011;63176;52.678;13.250;2023-04-22T01:30:18;8.07;;;4.50;;
7289;SDS011;63176;52.678;13.250;2023-04-22T01:32:43;6.33;;;4.00;;
7289;SDS011;63176;52.678;13.250;2023-04-22T01:35:09;5.37;;;4.60;;
7289;SDS011;63176;52.678;13.250;2023-04-22T01:37:35;5.57;;;4.23;;
7289;SDS011;63176;52.678;13.250;2023-04-22T01:40:01;7.20;;;4.30;;
7289;SDS011;63176;52.678;13.250;2023-04-22T01:42:28;5.43;;;4.07;;
7289;SDS011;63176;52.678;13.250;2023-04-22T01:44:55;5.70;;;4.28;;
7289;SDS011;63176;52.678;13.250;2023-04-22T01:47:20;6.20;;;4.40;;
7289;SDS011;63176;52.678;13.250;2023-04-22T01:49:46;11.40;;;4.73;;
7289;SDS011;63176;52.678;13.250;2023-04-22T01:52:12;6.73;;;3.93;;
7289;SDS011;63176;52.678;13.250;2023-04-22T01:54:37;6.73;;;4.50;;
7289;SDS011;63176;52.678;13.250;2023-04-22T01:57:07;9.70;;;4.60;;
7289;SDS011;63176;52.678;13.250;2023-04-22T01:59:35;5.40;;;4.13;;
7289;SDS011;63176;52.678;13.250;2023-04-22T02:02:01;7.47;;;4.90;;
7289;SDS011;63176;52.678;13.250;2023-04-22T02:04:26;7.70;;;4.60;;
7289;SDS011;63176;52.678;13.250;2023-04-22T02:06:52;6.83;;;4.40;;
7289;SDS011;63176;52.678;13.250;2023-04-22T02:09:17;4.90;;;3.60;;
7289;SDS011;63176;52.678;13.250;2023-04-22T02:11:43;7.20;;;5.03;;
7289;SDS011;63176;52.678;13.250;2023-04-22T02:14:09;5.57;;;4.00;;
7289;SDS011;63176;52.678;13.250;2023-04-22T02:16:34;7.80;;;4.40;;
7289;SDS011;63176;52.678;13.250;2023-04-22T02:19:00;8.43;;;4.67;;
7289;SDS011;63176;52.678;13.250;2023-04-22T02:21:29;6.70;;;4.10;;
7289;SDS011;63176;52.678;13.250;2023-04-22T02:23:58;6.07;;;4.18;;
7289;SDS011;63176;52.678;13.250;2023-04-22T02:26:23;5.20;;;3.90;;
7289;SDS011;63176;52.678;13.250;2023-04-22T02:28:50;6.90;;;4.68;;
7289;SDS011;63176;52.678;13.250;2023-04-22T02:31:18;6.30;;;4.43;;
7289;SDS011;63176;52.678;13.250;2023-04-22T02:33:44;8.30;;;3.60;;
7289;SDS011;63176;52.678;13.250;2023-04-22T02:36:10;8.50;;;5.00;;
7289;SDS011;63176;52.678;13.250;2023-04-22T02:38:36;9.37;;;4.60;;
7289;SDS011;63176;52.678;13.250;2023-04-22T02:41:02;7.82;;;4.10;;
7289;SDS011;63176;52.678;13.250;2023-04-22T02:43:28;5.63;;;4.23;;
7289;SDS011;63176;52.678;13.250;2023-04-22T02:45:53;4.80;;;4.17;;
7289;SDS011;63176;52.678;13.250;2023-04-22T02:48:19;4.67;;;4.13;;
7289;SDS011;63176;52.678;13.250;2023-04-22T02:50:45;11.33;;;4.17;;
7289;SDS011;63176;52.678;13.250;2023-04-22T02:53:10;7.37;;;4.20;;
7289;SDS011;63176;52.678;13.250;2023-04-22T02:55:37;7.63;;;4.53;;
7289;SDS011;63176;52.678;13.250;2023-04-22T02:58:04;5.32;;;3.72;;
7289;SDS011;63176;52.678;13.250;2023-04-22T03:00:30;8.07;;;4.28;;
7289;SDS011;63176;52.678;13.250;2023-04-22T03:02:56;5.77;;;3.93;;
7289;SDS011;63176;52.678;13.250;2023-04-22T03:05:21;7.03;;;4.90;;
7289;SDS011;63176;52.678;13.250;2023-04-22T03:07:47;4.27;;;3.73;;
7289;SDS011;63176;52.678;13.250;2023-04-22T03:10:13;4.47;;;4.00;;
7289;SDS011;63176;52.678;13.250;2023-04-22T03:12:39;5.77;;;4.30;;
7289;SDS011;63176;52.678;13.250;2023-04-22T03:15:05;4.70;;;4.20;;
7289;SDS011;63176;52.678;13.250;2023-04-22T03:17:31;4.28;;;3.78;;
7289;SDS011;63176;52.678;13.250;2023-04-22T03:19:57;9.73;;;4.20;;
7289;SDS011;63176;52.678;13.250;2023-04-22T03:22:23;7.57;;;4.00;;
7289;SDS011;63176;52.678;13.250;2023-04-22T03:24:48;6.83;;;4.90;;
7289;SDS011;63176;52.678;13.250;2023-04-22T03:27:14;10.40;;;5.20;;
7289;SDS011;63176;52.678;13.250;2023-04-22T03:29:40;8.37;;;3.73;;
7289;SDS011;63176;52.678;13.250;2023-04-22T03:32:05;5.87;;;3.33;;
7289;SDS011;63176;52.678;13.250;2023-04-22T03:34:31;7.07;;;4.60;;
7289;SDS011;63176;52.678;13.250;2023-04-22T03:36:56;5.40;;;4.33;;
7289;SDS011;63176;52.678;13.250;2023-04-22T03:39:22;5.83;;;4.00;;
7289;SDS011;63176;52.678;13.250;2023-04-22T03:41:48;7.90;;;4.07;;
7289;SDS011;63176;52.678;13.250;2023-04-22T03:44:13;7.57;;;4.23;;
7289;SDS011;63176;52.678;13.250;2023-04-22T03:46:39;5.63;;;4.30;;
7289;SDS011;63176;52.678;13.250;2023-04-22T03:49:04;7.07;;;4.73;;
7289;SDS011;63176;52.678;13.250;2023-04-22T03:51:30;6.00;;;4.63;;
7289;SDS011;63176;52.678;13.250;2023-04-22T03:53:56;6.40;;;3.57;;
7289;SDS011;63176;52.678;13.250;2023-04-22T03:56:21;5.53;;;3.50;;
7289;SDS011;63176;52.678;13.250;2023-04-22T03:58:48;5.13;;;3.75;;
7289;SDS011;63176;52.678;13.250;2023-04-22T04:01:14;5.53;;;4.25;;
7289;SDS011;63176;52.678;13.250;2023-04-22T04:03:40;5.20;;;3.77;;
7289;SDS011;63176;52.678;13.250;2023-04-22T04:06:05;6.73;;;4.33;;
7289;SDS011;63176;52.678;13.250;2023-04-22T04:08:31;8.30;;;4.80;;
7289;SDS011;63176;52.678;13.250;2023-04-22T04:10:57;7.80;;;4.73;;
7289;SDS011;63176;52.678;13.250;2023-04-22T04:13:22;5.77;;;4.40;;
7289;SDS011;63176;52.678;13.250;2023-04-22T04:15:48;8.03;;;4.80;;
7289;SDS011;63176;52.678;13.250;2023-04-22T04:18:14;9.93;;;5.20;;
7289;SDS011;63176;52.678;13.250;2023-04-22T04:20:39;6.87;;;4.40;;
7289;SDS011;63176;52.678;13.250;2023-04-22T04:23:05;6.53;;;5.17;;
7289;SDS011;63176;52.678;13.250;2023-04-22T04:25:31;9.40;;;5.30;;
7289;SDS011;63176;52.678;13.250;2023-04-22T04:28:03;7.25;;;5.57;;
7289;SDS011;63176;52.678;13.250;2023-04-22T04:30:33;8.68;;;5.13;;
7289;SDS011;63176;52.678;13.250;2023-04-22T04:32:59;9.37;;;5.20;;
7289;SDS011;63176;52.678;13.250;2023-04-22T04:35:30;10.10;;;5.88;;
7289;SDS011;63176;52.678;13.250;2023-04-22T04:38:00;7.65;;;5.35;;
7289;SDS011;63176;52.678;13.250;2023-04-22T04:40:26;6.63;;;5.22;;
7289;SDS011;63176;52.678;13.250;2023-04-22T04:42:55;7.03;;;5.03;;
7289;SDS011;63176;52.678;13.250;2023-04-22T04:45:28;4.90;;;4.40;;
7289;SDS011;63176;52.678;13.250;2023-04-22T04:47:54;11.73;;;5.60;;
7289;SDS011;63176;52.678;13.250;2023-04-22T04:50:20;7.10;;;4.97;;
7289;SDS011;63176;52.678;13.250;2023-04-22T04:52:46;8.05;;;4.82;;
7289;SDS011;63176;52.678;13.250;2023-04-22T04:55:15;7.97;;;5.30;;
7289;SDS011;63176;52.678;13.250;2023-04-22T04:57:42;8.00;;;5.25;;
7289;SDS011;63176;52.678;13.250;2023-04-22T05:00:09;8.93;;;4.63;;
7289;SDS011;63176;52.678;13.250;2023-04-22T05:02:35;6.95;;;4.70;;
7289;SDS011;63176;52.678;13.250;2023-04-22T05:05:01;7.23;;;5.33;;
7289;SDS011;63176;52.678;13.250;2023-04-22T05:07:27;8.90;;;5.10;;
7289;SDS011;63176;52.678;13.250;2023-04-22T05:09:53;7.07;;;4.57;;
7289;SDS011;63176;52.678;13.250;2023-04-22T05:12:18;6.97;;;5.30;;
7289;SDS011;63176;52.678;13.250;2023-04-22T05:14:44;6.47;;;4.97;;
7289;SDS011;63176;52.678;13.250;2023-04-22T05:17:10;7.63;;;5.07;;
7289;SDS011;63176;52.678;13.250;2023-04-22T05:19:37;7.60;;;4.85;;
7289;SDS011;63176;52.678;13.250;2023-04-22T05:22:03;8.87;;;4.90;;
7289;SDS011;63176;52.678;13.250;2023-04-22T05:24:28;7.70;;;4.70;;
7289;SDS011;63176;52.678;13.250;2023-04-22T05:26:54;8.27;;;4.90;;
7289;SDS011;63176;52.678;13.250;2023-04-22T05:29:21;8.20;;;5.38;;
7289;SDS011;63176;52.678;13.250;2023-04-22T05:31:47;13.10;;;5.83;;
7289;SDS011;63176;52.678;13.250;2023-04-22T05:34:12;16.50;;;5.30;;
7289;SDS011;63176;52.678;13.250;2023-04-22T05:36:38;8.20;;;5.10;;
7289;SDS011;63176;52.678;13.250;2023-04-22T05:39:03;8.90;;;5.43;;
7289;SDS011;63176;52.678;13.250;2023-04-22T05:41:30;12.65;;;5.25;;
7289;SDS011;63176;52.678;13.250;2023-04-22T05:43:55;7.90;;;5.30;;
7289;SDS011;63176;52.678;13.250;2023-04-22T05:46:21;11.33;;;5.97;;
7289;SDS011;63176;52.678;13.250;2023-04-22T05:48:46;7.53;;;4.50;;
7289;SDS011;63176;52.678;13.250;2023-04-22T05:51:12;7.17;;;5.50;;
7289;SDS011;63176;52.678;13.250;2023-04-22T05:53:38;8.70;;;5.57;;
7289;SDS011;63176;52.678;13.250;2023-04-22T05:56:04;8.27;;;5.43;;
7289;SDS011;63176;52.678;13.250;2023-04-22T05:58:30;8.20;;;5.87;;
7289;SDS011;63176;52.678;13.250;2023-04-22T06:00:55;11.17;;;6.00;;
7289;SDS011;63176;52.678;13.250;2023-04-22T06:03:24;7.57;;;5.47;;
7289;SDS011;63176;52.678;13.250;2023-04-22T06:05:56;10.00;;;5.22;;
7289;SDS011;63176;52.678;13.250;2023-04-22T06:08:22;7.10;;;5.15;;
7289;SDS011;63176;52.678;13.250;2023-04-22T06:10:48;8.33;;;5.30;;
7289;SDS011;63176;52.678;13.250;2023-04-22T06:13:14;11.25;;;5.97;;
7289;SDS011;63176;52.678;13.250;2023-04-22T06:15:39;7.80;;;5.70;;
7289;SDS011;63176;52.678;13.250;2023-04-22T06:18:05;8.00;;;5.30;;
7289;SDS011;63176;52.678;13.250;2023-04-22T06:20:30;10.90;;;5.40;;
7289;SDS011;63176;52.678;13.250;2023-04-22T06:22:56;12.97;;;6.43;;
7289;SDS011;63176;52.678;13.250;2023-04-22T06:25:23;8.60;;;5.60;;
7289;SDS011;63176;52.678;13.250;2023-04-22T06:27:48;9.17;;;5.20;;
7289;SDS011;63176;52.678;13.250;2023-04-22T06:30:14;9.00;;;6.47;;
7289;SDS011;63176;52.678;13.250;2023-04-22T06:32:40;8.83;;;5.27;;
7289;SDS011;63176;52.678;13.250;2023-04-22T06:35:06;6.50;;;5.43;;
7289;SDS011;63176;52.678;13.250;2023-04-22T06:37:32;9.25;;;5.70;;
7289;SDS011;63176;52.678;13.250;2023-04-22T06:39:57;10.10;;;6.20;;
7289;SDS011;63176;52.678;13.250;2023-04-22T06:42:23;7.33;;;5.27;;
7289;SDS011;63176;52.678;13.250;2023-04-22T06:44:48;6.80;;;5.83;;
7289;SDS011;63176;52.678;13.250;2023-04-22T06:47:14;10.10;;;6.13;;
7289;SDS011;63176;52.678;13.250;2023-04-22T06:49:40;12.43;;;6.67;;
7289;SDS011;63176;52.678;13.250;2023-04-22T06:52:07;8.90;;;6.20;;
7289;SDS011;63176;52.678;13.250;2023-04-22T06:54:33;9.07;;;5.47;;
7289;SDS011;63176;52.678;13.250;2023-04-22T06:56:58;8.30;;;6.20;;
7289;SDS011;63176;52.678;13.250;2023-04-22T06:59:24;8.27;;;5.80;;
7289;SDS011;63176;52.678;13.250;2023-04-22T07:01:50;9.07;;;5.67;;
7289;SDS011;63176;52.678;13.250;2023-04-22T07:04:15;12.03;;;5.57;;
7289;SDS011;63176;52.678;13.250;2023-04-22T07:06:41;10.40;;;6.00;;
7289;SDS011;63176;52.678;13.250;2023-04-22T07:09:07;7.17;;;5.40;;
7289;SDS011;63176;52.678;13.250;2023-04-22T07:11:33;8.97;;;5.80;;
7289;SDS011;63176;52.678;13.250;2023-04-22T07:13:59;7.97;;;5.70;;
7289;SDS011;63176;52.678;13.250;2023-04-22T07:16:25;9.63;;;6.60;;
7289;SDS011;63176;52.678;13.250;2023-04-22T07:18:51;11.10;;;6.27;;
7289;SDS011;63176;52.678;13.250;2023-04-22T07:21:16;6.83;;;5.07;;
7289;SDS011;63176;52.678;13.250;2023-04-22T07:23:42;9.47;;;5.67;;
7289;SDS011;63176;52.678;13.250;2023-04-22T07:26:07;13.80;;;6.40;;
7289;SDS011;63176;52.678;13.250;2023-04-22T07:28:33;10.33;;;5.40;;
7289;SDS011;63176;52.678;13.250;2023-04-22T07:30:58;8.57;;;6.10;;
7289;SDS011;63176;52.678;13.250;2023-04-22T07:33:24;7.17;;;5.37;;
7289;SDS011;63176;52.678;13.250;2023-04-22T07:35:50;9.80;;;6.00;;
7289;SDS011;63176;52.678;13.250;2023-04-22T07:38:15;9.13;;;5.70;;
7289;SDS011;63176;52.678;13.250;2023-04-22T07:40:41;8.73;;;5.43;;
7289;SDS011;63176;52.678;13.250;2023-04-22T07:43:07;11.90;;;5.53;;
7289;SDS011;63176;52.678;13.250;2023-04-22T07:45:33;9.07;;;5.90;;
7289;SDS011;63176;52.678;13.250;2023-04-22T07:47:58;10.90;;;6.70;;
7289;SDS011;63176;52.678;13.250;2023-04-22T07:50:24;8.50;;;5.73;;
7289;SDS011;63176;52.678;13.250;2023-04-22T07:52:50;10.00;;;6.07;;
7289;SDS011;63176;52.678;13.250;2023-04-22T07:55:15;8.60;;;5.50;;
7289;SDS011;63176;52.678;13.250;2023-04-22T07:57:41;8.20;;;5.90;;
7289;SDS011;63176;52.678;13.250;2023-04-22T08:00:07;8.87;;;5.43;;
7289;SDS011;63176;52.678;13.250;2023-04-22T08:02:34;7.50;;;5.33;;
7289;SDS011;63176;52.678;13.250;2023-04-22T08:04:59;9.23;;;6.00;;
7289;SDS011;63176;52.678;13.250;2023-04-22T08:07:25;10.70;;;6.10;;
7289;SDS011;63176;52.678;13.250;2023-04-22T08:09:51;9.20;;;5.40;;
7289;SDS011;63176;52.678;13.250;2023-04-22T08:12:17;8.17;;;5.73;;
7289;SDS011;63176;52.678;13.250;2023-04-22T08:14:43;6.87;;;5.73;;
7289;SDS011;63176;52.678;13.250;2023-04-22T08:17:09;8.77;;;5.10;;
7289;SDS011;63176;52.678;13.250;2023-04-22T08:19:34;9.50;;;5.90;;
7289;SDS011;63176;52.678;13.250;2023-04-22T08:22:00;7.37;;;5.40;;
7289;SDS011;63176;52.678;13.250;2023-04-22T08:24:25;7.70;;;6.50;;
7289;SDS011;63176;52.678;13.250;2023-04-22T08:26:51;7.03;;;5.60;;
7289;SDS011;63176;52.678;13.250;2023-04-22T08:29:17;6.43;;;5.10;;
7289;SDS011;63176;52.678;13.250;2023-04-22T08:31:42;7.47;;;5.57;;
7289;SDS011;63176;52.678;13.250;2023-04-22T08:34:08;8.27;;;5.30;;
7289;SDS011;63176;52.678;13.250;2023-04-22T08:36:34;11.60;;;4.97;;
7289;SDS011;63176;52.678;13.250;2023-04-22T08:38:59;8.07;;;5.60;;
7289;SDS011;63176;52.678;13.250;2023-04-22T08:41:25;9.93;;;5.20;;
7289;SDS011;63176;52.678;13.250;2023-04-22T08:43:51;7.30;;;5.20;;
7289;SDS011;63176;52.678;13.250;2023-04-22T08:46:17;7.30;;;5.20;;
7289;SDS011;63176;52.678;13.250;2023-04-22T08:48:48;7.80;;;5.70;;
7289;SDS011;63176;52.678;13.250;2023-04-22T08:51:15;7.37;;;4.83;;
7289;SDS011;63176;52.678;13.250;2023-04-22T08:53:44;7.93;;;5.53;;
7289;SDS011;63176;52.678;13.250;2023-04-22T08:56:13;9.07;;;5.50;;
7289;SDS011;63176;52.678;13.250;2023-04-22T08:58:40;6.70;;;4.63;;
7289;SDS011;63176;52.678;13.250;2023-04-22T09:01:06;7.40;;;5.00;;
7289;SDS011;63176;52.678;13.250;2023-04-22T09:03:35;10.70;;;5.13;;
7289;SDS011;63176;52.678;13.250;2023-04-22T09:06:04;7.73;;;4.97;;
7289;SDS011;63176;52.678;13.250;2023-04-22T09:08:30;6.80;;;5.60;;
7289;SDS011;63176;52.678;13.250;2023-04-22T09:10:57;10.50;;;5.13;;
7289;SDS011;63176;52.678;13.250;2023-04-22T09:13:24;8.33;;;5.37;;
7289;SDS011;63176;52.678;13.250;2023-04-22T09:15:50;5.50;;;4.80;;
7289;SDS011;63176;52.678;13.250;2023-04-22T09:18:16;8.80;;;5.30;;
7289;SDS011;63176;52.678;13.250;2023-04-22T09:20:43;13.87;;;5.27;;
7289;SDS011;63176;52.678;13.250;2023-04-22T09:23:11;6.73;;;4.20;;
7289;SDS011;63176;52.678;13.250;2023-04-22T09:25:37;6.00;;;4.27;;
7289;SDS011;63176;52.678;13.250;2023-04-22T09:28:04;7.20;;;5.63;;
7289;SDS011;63176;52.678;13.250;2023-04-22T09:30:35;5.90;;;4.30;;
7289;SDS011;63176;52.678;13.250;2023-04-22T09:33:02;8.10;;;4.67;;
7289;SDS011;63176;52.678;13.250;2023-04-22T09:37:56;7.10;;;4.00;;
7289;SDS011;63176;52.678;13.250;2023-04-22T09:40:23;8.63;;;4.37;;
7289;SDS011;63176;52.678;13.250;2023-04-22T09:42:50;8.40;;;4.23;;
7289;SDS011;63176;52.678;13.250;2023-04-22T09:45:24;6.60;;;4.60;;
7289;SDS011;63176;52.678;13.250;2023-04-22T09:50:55;5.33;;;4.23;;
7289;SDS011;63176;52.678;13.250;2023-04-22T09:53:20;4.53;;;4.13;;
7289;SDS011;63176;52.678;13.250;2023-04-22T09:55:48;7.73;;;4.30;;
7289;SDS011;63176;52.678;13.250;2023-04-22T09:58:16;6.90;;;4.57;;
7289;SDS011;63176;52.678;13.250;2023-04-22T10:00:46;6.83;;;4.20;;
7289;SDS011;63176;52.678;13.250;2023-04-22T10:03:14;6.30;;;3.90;;
7289;SDS011;63176;52.678;13.250;2023-04-22T10:05:40;6.37;;;4.43;;
7289;SDS011;63176;52.678;13.250;2023-04-22T10:08:07;6.73;;;4.23;;
7289;SDS011;63176;52.678;13.250;2023-04-22T10:10:34;8.40;;;4.70;;
7289;SDS011;63176;52.678;13.250;2023-04-22T10:13:00;6.30;;;4.93;;
7289;SDS011;63176;52.678;13.250;2023-04-22T10:18:10;6.20;;;4.10;;
7289;SDS011;63176;52.678;13.250;2023-04-22T10:20:38;4.10;;;3.70;;
7289;SDS011;63176;52.678;13.250;2023-04-22T10:23:05;4.90;;;4.13;;
7289;SDS011;63176;52.678;13.250;2023-04-22T10:25:42;5.53;;;4.37;;
7289;SDS011;63176;52.678;13.250;2023-04-22T10:28:14;5.60;;;3.83;;
7289;SDS011;63176;52.678;13.250;2023-04-22T10:30:41;5.73;;;3.87;;
7289;SDS011;63176;52.678;13.250;2023-04-22T10:38:36;4.47;;;4.03;;
7289;SDS011;63176;52.678;13.250;2023-04-22T10:41:03;5.53;;;4.67;;
7289;SDS011;63176;52.678;13.250;2023-04-22T10:43:45;5.67;;;4.00;;
7289;SDS011;63176;52.678;13.250;2023-04-22T10:49:07;6.50;;;3.93;;
7289;SDS011;63176;52.678;13.250;2023-04-22T10:51:38;5.83;;;4.73;;
7289;SDS011;63176;52.678;13.250;2023-04-22T10:54:04;4.20;;;3.53;;
7289;SDS011;63176;52.678;13.250;2023-04-22T10:56:30;6.63;;;3.27;;
7289;SDS011;63176;52.678;13.250;2023-04-22T10:58:55;9.63;;;6.10;;
7289;SDS011;63176;52.678;13.250;2023-04-22T11:01:21;9.00;;;7.10;;
7289;SDS011;63176;52.678;13.250;2023-04-22T11:03:47;8.40;;;6.87;;
7289;SDS011;63176;52.678;13.250;2023-04-22T11:06:15;32.73;;;18.53;;
7289;SDS011;63176;52.678;13.250;2023-04-22T11:08:46;26.83;;;16.70;;
7289;SDS011;63176;52.678;13.250;2023-04-22T11:11:12;8.63;;;6.60;;
7289;SDS011;63176;52.678;13.250;2023-04-22T11:13:40;14.50;;;9.60;;
7289;SDS011;63176;52.678;13.250;2023-04-22T11:16:09;15.53;;;10.20;;
7289;SDS011;63176;52.678;13.250;2023-04-22T11:18:35;5.33;;;4.17;;
7289;SDS011;63176;52.678;13.250;2023-04-22T11:21:02;5.60;;;3.93;;
7289;SDS011;63176;52.678;13.250;2023-04-22T11:23:30;10.20;;;4.20;;
7289;SDS011;63176;52.678;13.250;2023-04-22T11:25:57;5.80;;;3.90;;
7289;SDS011;63176;52.678;13.250;2023-04-22T11:28:24;7.20;;;4.10;;
7289;SDS011;63176;52.678;13.250;2023-04-22T11:30:50;4.80;;;3.20;;
7289;SDS011;63176;52.678;13.250;2023-04-22T11:33:16;4.70;;;3.80;;
7289;SDS011;63176;52.678;13.250;2023-04-22T11:35:43;7.23;;;3.17;;
7289;SDS011;63176;52.678;13.250;2023-04-22T11:38:08;6.40;;;3.77;;
7289;SDS011;63176;52.678;13.250;2023-04-22T11:40:35;20.03;;;8.93;;
7289;SDS011;63176;52.678;13.250;2023-04-22T11:43:03;11.33;;;3.80;;
7289;SDS011;63176;52.678;13.250;2023-04-22T11:45:30;4.27;;;3.83;;
7289;SDS011;63176;52.678;13.250;2023-04-22T11:47:57;6.10;;;3.37;;
7289;SDS011;63176;52.678;13.250;2023-04-22T11:50:27;9.53;;;3.73;;
7289;SDS011;63176;52.678;13.250;2023-04-22T11:55:27;9.80;;;6.37;;
7289;SDS011;63176;52.678;13.250;2023-04-22T11:58:00;4.20;;;3.53;;
7289;SDS011;63176;52.678;13.250;2023-04-22T12:00:30;13.60;;;12.03;;
7289;SDS011;63176;52.678;13.250;2023-04-22T12:05:43;5.67;;;4.80;;
7289;SDS011;63176;52.678;13.250;2023-04-22T12:08:16;4.27;;;3.60;;
7289;SDS011;63176;52.678;13.250;2023-04-22T12:10:44;6.80;;;6.13;;
7289;SDS011;63176;52.678;13.250;2023-04-22T12:13:22;9.43;;;7.93;;
7289;SDS011;63176;52.678;13.250;2023-04-22T12:15:53;12.67;;;9.17;;
7289;SDS011;63176;52.678;13.250;2023-04-22T12:18:28;15.60;;;10.37;;
7289;SDS011;63176;52.678;13.250;2023-04-22T12:23:28;12.93;;;9.17;;
7289;SDS011;63176;52.678;13.250;2023-04-22T12:25:55;7.23;;;3.10;;
7289;SDS011;63176;52.678;13.250;2023-04-22T12:28:21;4.27;;;3.30;;
7289;SDS011;63176;52.678;13.250;2023-04-22T12:30:47;3.10;;;2.80;;
7289;SDS011;63176;52.678;13.250;2023-04-22T12:33:12;6.10;;;3.80;;
7289;SDS011;63176;52.678;13.250;2023-04-22T12:35:39;7.63;;;3.87;;
7289;SDS011;63176;52.678;13.250;2023-04-22T12:38:05;4.33;;;3.50;;
7289;SDS011;63176;52.678;13.250;2023-04-22T12:40:30;5.83;;;3.43;;
7289;SDS011;63176;52.678;13.250;2023-04-22T12:42:56;5.13;;;3.27;;
7289;SDS011;63176;52.678;13.250;2023-04-22T12:45:22;3.83;;;3.40;;
7289;SDS011;63176;52.678;13.250;2023-04-22T12:47:48;4.90;;;3.70;;
7289;SDS011;63176;52.678;13.250;2023-04-22T12:50:17;3.80;;;3.40;;
7289;SDS011;63176;52.678;13.250;2023-04-22T12:52:43;5.73;;;3.33;;
7289;SDS011;63176;52.678;13.250;2023-04-22T12:55:09;4.57;;;3.90;;
7289;SDS011;63176;52.678;13.250;2023-04-22T12:57:34;8.40;;;3.63;;
7289;SDS011;63176;52.678;13.250;2023-04-22T13:00:00;4.10;;;3.20;;
7289;SDS011;63176;52.678;13.250;2023-04-22T13:02:26;3.57;;;3.23;;
7289;SDS011;63176;52.678;13.250;2023-04-22T13:04:51;4.23;;;3.53;;
7289;SDS011;63176;52.678;13.250;2023-04-22T13:07:17;5.10;;;3.33;;
7289;SDS011;63176;52.678;13.250;2023-04-22T13:09:43;4.33;;;3.77;;
7289;SDS011;63176;52.678;13.250;2023-04-22T13:12:09;4.17;;;3.10;;
7289;SDS011;63176;52.678;13.250;2023-04-22T13:14:35;6.50;;;3.13;;
7289;SDS011;63176;52.678;13.250;2023-04-22T13:17:00;8.73;;;4.27;;
7289;SDS011;63176;52.678;13.250;2023-04-22T13:19:27;3.97;;;3.27;;
7289;SDS011;63176;52.678;13.250;2023-04-22T13:21:54;4.63;;;3.80;;
7289;SDS011;63176;52.678;13.250;2023-04-22T13:24:20;4.00;;;3.50;;
7289;SDS011;63176;52.678;13.250;2023-04-22T13:26:46;6.60;;;3.87;;
7289;SDS011;63176;52.678;13.250;2023-04-22T13:29:12;5.07;;;3.73;;
7289;SDS011;63176;52.678;13.250;2023-04-22T13:31:38;5.03;;;3.63;;
7289;SDS011;63176;52.678;13.250;2023-04-22T13:34:08;3.60;;;3.30;;
7289;SDS011;63176;52.678;13.250;2023-04-22T13:36:35;6.23;;;4.30;;
7289;SDS011;63176;52.678;13.250;2023-04-22T13:39:01;5.30;;;3.80;;
7289;SDS011;63176;52.678;13.250;2023-04-22T13:41:26;4.33;;;3.20;;
7289;SDS011;63176;52.678;13.250;2023-04-22T13:43:52;5.80;;;3.70;;
7289;SDS011;63176;52.678;13.250;2023-04-22T13:46:19;3.70;;;3.00;;
7289;SDS011;63176;52.678;13.250;2023-04-22T13:48:45;5.87;;;3.83;;
7289;SDS011;63176;52.678;13.250;2023-04-22T13:51:11;3.00;;;2.80;;
7289;SDS011;63176;52.678;13.250;2023-04-22T13:53:36;3.70;;;3.37;;
7289;SDS011;63176;52.678;13.250;2023-04-22T13:56:02;4.43;;;3.40;;
7289;SDS011;63176;52.678;13.250;2023-04-22T13:58:28;5.57;;;3.47;;
7289;SDS011;63176;52.678;13.250;2023-04-22T14:00:53;4.37;;;3.97;;
7289;SDS011;63176;52.678;13.250;2023-04-22T14:03:19;4.40;;;3.17;;
7289;SDS011;63176;52.678;13.250;2023-04-22T14:05:45;3.13;;;2.83;;
7289;SDS011;63176;52.678;13.250;2023-04-22T14:08:10;4.20;;;3.80;;
7289;SDS011;63176;52.678;13.250;2023-04-22T14:10:36;4.70;;;3.30;;
7289;SDS011;63176;52.678;13.250;2023-04-22T14:13:02;4.93;;;3.50;;
7289;SDS011;63176;52.678;13.250;2023-04-22T14:15:28;5.70;;;3.77;;
7289;SDS011;63176;52.678;13.250;2023-04-22T14:17:53;5.83;;;3.50;;
7289;SDS011;63176;52.678;13.250;2023-04-22T14:20:19;5.50;;;3.70;;
7289;SDS011;63176;52.678;13.250;2023-04-22T14:22:45;4.10;;;3.57;;
7289;SDS011;63176;52.678;13.250;2023-04-22T14:25:11;6.00;;;3.90;;
7289;SDS011;63176;52.678;13.250;2023-04-22T14:27:37;9.13;;;3.87;;
7289;SDS011;63176;52.678;13.250;2023-04-22T14:30:04;5.70;;;3.97;;
7289;SDS011;63176;52.678;13.250;2023-04-22T14:32:30;5.30;;;4.27;;
7289;SDS011;63176;52.678;13.250;2023-04-22T14:34:56;3.90;;;3.60;;
7289;SDS011;63176;52.678;13.250;2023-04-22T14:37:22;4.30;;;3.47;;
7289;SDS011;63176;52.678;13.250;2023-04-22T14:39:47;4.60;;;3.80;;
7289;SDS011;63176;52.678;13.250;2023-04-22T14:42:13;4.67;;;3.93;;
7289;SDS011;63176;52.678;13.250;2023-04-22T14:44:40;4.40;;;4.00;;
7289;SDS011;63176;52.678;13.250;2023-04-22T14:47:06;4.30;;;3.90;;
7289;SDS011;63176;52.678;13.250;2023-04-22T14:49:31;4.80;;;3.40;;
7289;SDS011;63176;52.678;13.250;2023-04-22T14:51:57;5.07;;;4.13;;
7289;SDS011;63176;52.678;13.250;2023-04-22T14:54:25;4.03;;;3.63;;
7289;SDS011;63176;52.678;13.250;2023-04-22T14:56:50;7.57;;;4.10;;
7289;SDS011;63176;52.678;13.250;2023-04-22T14:59:19;5.00;;;3.83;;
7289;SDS011;63176;52.678;13.250;2023-04-22T15:01:45;5.30;;;3.80;;
7289;SDS011;63176;52.678;13.250;2023-04-22T15:04:11;8.37;;;3.97;;